Dixon Entrance East: Past 24 Hour Conditions

 

Bella Bella Airport

08:00 AM PST 23 February 2018
Disclaimer

This table is a summary of hourly weather conditions for the past 24 hours.
Please note that these observations might not always be representative of weather conditions over their associated marine area.

Date / Time
(PST)
Wind(knots) Conditions Visibility(km) Pressure(kPa) Air tempC) Relative humidity(%) Dew pointC) Wind Chill
23 February 2018
8:00 S 10 gust 16 Light Snow 8 101.6 1 97 0 *
7:00 S 8 gust 15 Light Snow 3 101.7 0 96 0 *
6:00 SSE 13 gust 19 Light Snow 6 101.8 1 95 0 *
5:00 S 13 gust 24 Precipitation 13 101.9 2 93 1 *
4:00 SSE 12 Light Rain 16 102.0 2 87 0 *
3:00 SE 11 Light Rain 16 102.2 1 88 -1 *
2:00 SE 8 Cloudy 16 102.4 1 90 -1 *
1:00 SE 8 Light Snow 10 102.6 0 94 -1 *
0:00 SSE 8 Light Snow 6 102.7 2 75 -2 *
22 February 2018
23:00 E 5 Cloudy 16 102.7 2 70 -3 *
22:00 SE 5 Cloudy 16 102.8 2 70 -3 *
21:00 SSE 3 Cloudy 16 102.8 1 72 -4 *
20:00 calm Cloudy 16 102.8 0 73 -4 *
19:00 SE 2 Mostly Cloudy 16 102.8 0 69 -5 -2
18:00 SW 2 Mainly Clear 16 102.9 3 47 -8 *
17:00 SW 2 Sunny 16 102.9 4 40 -9 *
16:00 N 4 Sunny 16 102.9 5 29 -11 *
15:00 N 4 Sunny 16 102.9 6 30 -11 *
14:00 NE 2 Sunny 16 103.0 5 33 -10 *
13:00 calm Sunny 16 103.0 5 46 -6 *
12:00 SSE 3 Sunny 16 103.1 3 50 -6 *
11:00 E 2 Sunny 16 103.1 2 64 -5 *
10:00 calm Sunny 16 103.1 0 76 -4 *
9:00 calm Sunny 16 103.1 -3 93 -4 *
8:00 calm Sunny 16 103.0 -8 90 -10 *

Zoom-in to make a selection

Map of Pacific - North Coast marine weather areas Middle Nomad - 46004 South Nomad - 46036 Dixon Entrance Central - 46145 South Moresby - 46147 Nanakwa Shoal - 46181 North Hecate Strait - 46183 North Nomad - 46184 South Hecate Strait - 46185 West Sea Otter - 46204 West Dixon Entrance - 46205 East Dellwood - 46207 West Moresby - 46208 Sartine Island Cape St.James Kindakun Rocks Langara Island Masset Municipal Airport Rose Spit Sandspit Airport Bella Bella Airport Bella Coola Airport Cathedral Point Cumshewa Island Grey Islet Holland Rock Lucy Islands Lightstation Prince Rupert Airport Bonilla Island
Legend:
buoy Buoy
land station Land Station

Pacific - North Coast Area

Another Region

What we are doing

Date modified: